sensor_id;sensor_type;location;lat;lon;timestamp;temperature;humidity
13833;DHT22;6987;19.472;-99.276;2023-09-19T00:00:59;20.90;64.90
13833;DHT22;6987;19.472;-99.276;2023-09-19T00:03:30;20.90;64.50
13833;DHT22;6987;19.472;-99.276;2023-09-19T00:06:00;20.80;65.00
13833;DHT22;6987;19.472;-99.276;2023-09-19T00:08:29;20.90;64.30
13833;DHT22;6987;19.472;-99.276;2023-09-19T00:11:01;20.90;64.60
13833;DHT22;6987;19.472;-99.276;2023-09-19T00:13:33;20.90;65.50
13833;DHT22;6987;19.472;-99.276;2023-09-19T00:16:08;20.90;65.20
13833;DHT22;6987;19.472;-99.276;2023-09-19T00:18:39;20.90;65.80
13833;DHT22;6987;19.472;-99.276;2023-09-19T00:21:09;20.90;67.20
13833;DHT22;6987;19.472;-99.276;2023-09-19T00:23:38;20.90;66.70
13833;DHT22;6987;19.472;-99.276;2023-09-19T00:26:11;20.90;66.30
13833;DHT22;6987;19.472;-99.276;2023-09-19T00:28:40;20.80;67.40
13833;DHT22;6987;19.472;-99.276;2023-09-19T00:31:10;20.80;68.40
13833;DHT22;6987;19.472;-99.276;2023-09-19T00:33:39;20.80;67.90
13833;DHT22;6987;19.472;-99.276;2023-09-19T00:36:10;20.70;66.90
13833;DHT22;6987;19.472;-99.276;2023-09-19T00:38:39;20.60;66.80
13833;DHT22;6987;19.472;-99.276;2023-09-19T00:41:13;20.60;67.40
13833;DHT22;6987;19.472;-99.276;2023-09-19T00:43:42;20.60;68.10
13833;DHT22;6987;19.472;-99.276;2023-09-19T00:46:12;20.50;68.10
13833;DHT22;6987;19.472;-99.276;2023-09-19T00:48:43;20.50;68.50
13833;DHT22;6987;19.472;-99.276;2023-09-19T00:51:14;20.60;68.90
13833;DHT22;6987;19.472;-99.276;2023-09-19T00:53:46;20.50;68.90
13833;DHT22;6987;19.472;-99.276;2023-09-19T00:56:17;20.50;68.70
13833;DHT22;6987;19.472;-99.276;2023-09-19T00:58:48;20.40;70.60
13833;DHT22;6987;19.472;-99.276;2023-09-19T01:01:17;20.40;70.80
13833;DHT22;6987;19.472;-99.276;2023-09-19T01:03:47;20.30;72.80
13833;DHT22;6987;19.472;-99.276;2023-09-19T01:06:16;20.10;72.10
13833;DHT22;6987;19.472;-99.276;2023-09-19T01:08:46;20.00;74.00
13833;DHT22;6987;19.472;-99.276;2023-09-19T01:11:21;19.90;77.10
13833;DHT22;6987;19.472;-99.276;2023-09-19T01:13:59;19.90;77.10
13833;DHT22;6987;19.472;-99.276;2023-09-19T01:16:38;19.70;78.70
13833;DHT22;6987;19.472;-99.276;2023-09-19T01:19:36;19.60;80.50
13833;DHT22;6987;19.472;-99.276;2023-09-19T01:22:16;19.50;81.50
13833;DHT22;6987;19.472;-99.276;2023-09-19T01:28:13;19.50;84.40
13833;DHT22;6987;19.472;-99.276;2023-09-19T01:30:47;19.40;86.00
13833;DHT22;6987;19.472;-99.276;2023-09-19T01:33:21;19.40;85.40
13833;DHT22;6987;19.472;-99.276;2023-09-19T01:35:50;19.40;86.90
13833;DHT22;6987;19.472;-99.276;2023-09-19T01:38:20;19.40;88.80
13833;DHT22;6987;19.472;-99.276;2023-09-19T01:41:00;19.40;89.70
13833;DHT22;6987;19.472;-99.276;2023-09-19T01:43:36;19.30;89.90
13833;DHT22;6987;19.472;-99.276;2023-09-19T01:46:12;19.30;90.00
13833;DHT22;6987;19.472;-99.276;2023-09-19T01:48:43;19.40;89.90
13833;DHT22;6987;19.472;-99.276;2023-09-19T01:51:20;19.40;90.20
13833;DHT22;6987;19.472;-99.276;2023-09-19T01:53:55;19.40;89.70
13833;DHT22;6987;19.472;-99.276;2023-09-19T01:56:30;19.40;89.90
13833;DHT22;6987;19.472;-99.276;2023-09-19T01:59:07;19.40;87.50
13833;DHT22;6987;19.472;-99.276;2023-09-19T02:01:40;19.30;88.50
13833;DHT22;6987;19.472;-99.276;2023-09-19T02:04:11;19.30;88.90
13833;DHT22;6987;19.472;-99.276;2023-09-19T02:06:41;19.20;88.00
13833;DHT22;6987;19.472;-99.276;2023-09-19T02:09:10;19.30;87.80
13833;DHT22;6987;19.472;-99.276;2023-09-19T02:11:39;19.20;89.50
13833;DHT22;6987;19.472;-99.276;2023-09-19T02:14:09;19.20;89.50
13833;DHT22;6987;19.472;-99.276;2023-09-19T02:16:40;19.10;90.50
13833;DHT22;6987;19.472;-99.276;2023-09-19T02:19:09;19.10;88.90
13833;DHT22;6987;19.472;-99.276;2023-09-19T02:21:38;19.00;94.60
13833;DHT22;6987;19.472;-99.276;2023-09-19T02:24:08;18.60;99.90
13833;DHT22;6987;19.472;-99.276;2023-09-19T02:26:39;18.20;99.90
13833;DHT22;6987;19.472;-99.276;2023-09-19T02:29:08;17.90;99.90
13833;DHT22;6987;19.472;-99.276;2023-09-19T02:31:41;17.90;99.90
13833;DHT22;6987;19.472;-99.276;2023-09-19T02:34:13;17.70;99.90
13833;DHT22;6987;19.472;-99.276;2023-09-19T02:36:43;17.50;99.90
13833;DHT22;6987;19.472;-99.276;2023-09-19T02:39:12;17.50;99.90
13833;DHT22;6987;19.472;-99.276;2023-09-19T02:41:42;17.50;99.90
13833;DHT22;6987;19.472;-99.276;2023-09-19T02:44:11;17.50;99.90
13833;DHT22;6987;19.472;-99.276;2023-09-19T02:46:42;17.40;99.90
13833;DHT22;6987;19.472;-99.276;2023-09-19T02:49:12;17.40;99.90
13833;DHT22;6987;19.472;-99.276;2023-09-19T02:51:41;17.40;99.90
13833;DHT22;6987;19.472;-99.276;2023-09-19T02:54:10;17.50;99.90
13833;DHT22;6987;19.472;-99.276;2023-09-19T02:56:40;17.50;99.90
13833;DHT22;6987;19.472;-99.276;2023-09-19T02:59:09;17.50;99.90
13833;DHT22;6987;19.472;-99.276;2023-09-19T03:01:38;17.50;99.90
13833;DHT22;6987;19.472;-99.276;2023-09-19T03:04:10;17.50;99.90
13833;DHT22;6987;19.472;-99.276;2023-09-19T03:06:40;17.60;99.90
13833;DHT22;6987;19.472;-99.276;2023-09-19T03:09:10;17.60;99.90
13833;DHT22;6987;19.472;-99.276;2023-09-19T03:11:40;17.60;99.90
13833;DHT22;6987;19.472;-99.276;2023-09-19T03:14:09;17.60;99.90
13833;DHT22;6987;19.472;-99.276;2023-09-19T03:16:39;17.70;99.90
13833;DHT22;6987;19.472;-99.276;2023-09-19T03:19:10;17.80;99.90
13833;DHT22;6987;19.472;-99.276;2023-09-19T03:21:42;17.80;99.90
13833;DHT22;6987;19.472;-99.276;2023-09-19T03:24:11;17.80;99.90
13833;DHT22;6987;19.472;-99.276;2023-09-19T03:26:41;17.70;99.90
13833;DHT22;6987;19.472;-99.276;2023-09-19T03:29:10;17.70;99.90
13833;DHT22;6987;19.472;-99.276;2023-09-19T03:31:40;17.60;99.90
13833;DHT22;6987;19.472;-99.276;2023-09-19T03:34:12;17.60;99.90
13833;DHT22;6987;19.472;-99.276;2023-09-19T03:36:41;17.70;99.90
13833;DHT22;6987;19.472;-99.276;2023-09-19T03:39:10;17.70;99.90
13833;DHT22;6987;19.472;-99.276;2023-09-19T03:41:42;17.70;99.90
13833;DHT22;6987;19.472;-99.276;2023-09-19T03:44:12;17.70;99.90
13833;DHT22;6987;19.472;-99.276;2023-09-19T03:46:42;17.70;99.90
13833;DHT22;6987;19.472;-99.276;2023-09-19T03:49:12;17.70;99.90
13833;DHT22;6987;19.472;-99.276;2023-09-19T03:51:42;17.70;99.90
13833;DHT22;6987;19.472;-99.276;2023-09-19T03:54:11;17.60;99.90
13833;DHT22;6987;19.472;-99.276;2023-09-19T03:56:41;17.60;99.90
13833;DHT22;6987;19.472;-99.276;2023-09-19T03:59:10;17.60;99.90
13833;DHT22;6987;19.472;-99.276;2023-09-19T04:01:40;17.60;99.90
13833;DHT22;6987;19.472;-99.276;2023-09-19T04:04:11;17.60;99.90
13833;DHT22;6987;19.472;-99.276;2023-09-19T04:06:41;17.60;99.90
13833;DHT22;6987;19.472;-99.276;2023-09-19T04:09:10;17.60;99.90
13833;DHT22;6987;19.472;-99.276;2023-09-19T04:11:40;17.50;99.90
13833;DHT22;6987;19.472;-99.276;2023-09-19T04:14:09;17.50;99.90
13833;DHT22;6987;19.472;-99.276;2023-09-19T04:16:38;17.50;99.90
13833;DHT22;6987;19.472;-99.276;2023-09-19T04:19:07;17.50;99.90
13833;DHT22;6987;19.472;-99.276;2023-09-19T04:21:38;17.50;99.90
13833;DHT22;6987;19.472;-99.276;2023-09-19T04:24:09;17.60;99.90
13833;DHT22;6987;19.472;-99.276;2023-09-19T04:26:40;17.50;99.90
13833;DHT22;6987;19.472;-99.276;2023-09-19T04:29:10;17.50;99.90
13833;DHT22;6987;19.472;-99.276;2023-09-19T04:31:41;17.40;99.90
13833;DHT22;6987;19.472;-99.276;2023-09-19T04:34:12;17.40;99.90
13833;DHT22;6987;19.472;-99.276;2023-09-19T04:36:44;17.40;99.90
13833;DHT22;6987;19.472;-99.276;2023-09-19T04:39:14;17.40;99.90
13833;DHT22;6987;19.472;-99.276;2023-09-19T04:41:43;17.40;99.90
13833;DHT22;6987;19.472;-99.276;2023-09-19T04:44:14;17.40;99.90
13833;DHT22;6987;19.472;-99.276;2023-09-19T04:46:45;17.40;99.90
13833;DHT22;6987;19.472;-99.276;2023-09-19T04:49:14;17.40;99.90
13833;DHT22;6987;19.472;-99.276;2023-09-19T04:51:46;17.40;99.90
13833;DHT22;6987;19.472;-99.276;2023-09-19T04:54:16;17.40;99.90
13833;DHT22;6987;19.472;-99.276;2023-09-19T04:56:46;17.30;99.90
13833;DHT22;6987;19.472;-99.276;2023-09-19T04:59:15;17.30;99.90
13833;DHT22;6987;19.472;-99.276;2023-09-19T05:01:45;17.20;99.90
13833;DHT22;6987;19.472;-99.276;2023-09-19T05:04:14;17.10;99.90
13833;DHT22;6987;19.472;-99.276;2023-09-19T05:06:45;17.10;99.90
13833;DHT22;6987;19.472;-99.276;2023-09-19T05:09:15;17.10;99.90
13833;DHT22;6987;19.472;-99.276;2023-09-19T05:11:46;17.10;99.90
13833;DHT22;6987;19.472;-99.276;2023-09-19T05:14:16;17.00;99.90
13833;DHT22;6987;19.472;-99.276;2023-09-19T05:16:45;17.00;99.90
13833;DHT22;6987;19.472;-99.276;2023-09-19T05:19:15;17.00;99.90
13833;DHT22;6987;19.472;-99.276;2023-09-19T05:21:46;16.80;99.90
13833;DHT22;6987;19.472;-99.276;2023-09-19T05:24:16;16.80;99.90
13833;DHT22;6987;19.472;-99.276;2023-09-19T05:26:45;16.90;99.90
13833;DHT22;6987;19.472;-99.276;2023-09-19T05:29:14;16.90;99.90
13833;DHT22;6987;19.472;-99.276;2023-09-19T05:31:43;16.90;99.90
13833;DHT22;6987;19.472;-99.276;2023-09-19T05:34:13;16.90;99.90
13833;DHT22;6987;19.472;-99.276;2023-09-19T05:36:45;17.00;99.90
13833;DHT22;6987;19.472;-99.276;2023-09-19T05:39:15;17.00;99.90
13833;DHT22;6987;19.472;-99.276;2023-09-19T05:41:45;17.00;99.90
13833;DHT22;6987;19.472;-99.276;2023-09-19T05:44:14;17.00;99.90
13833;DHT22;6987;19.472;-99.276;2023-09-19T05:46:44;17.10;99.90
13833;DHT22;6987;19.472;-99.276;2023-09-19T05:49:15;17.10;99.90
13833;DHT22;6987;19.472;-99.276;2023-09-19T05:51:46;17.00;99.90
13833;DHT22;6987;19.472;-99.276;2023-09-19T05:54:15;17.10;99.90
13833;DHT22;6987;19.472;-99.276;2023-09-19T05:56:46;17.10;99.90
13833;DHT22;6987;19.472;-99.276;2023-09-19T05:59:19;17.10;99.90
13833;DHT22;6987;19.472;-99.276;2023-09-19T06:01:49;17.10;99.90
13833;DHT22;6987;19.472;-99.276;2023-09-19T06:04:19;17.10;99.90
13833;DHT22;6987;19.472;-99.276;2023-09-19T06:06:49;17.00;99.90
13833;DHT22;6987;19.472;-99.276;2023-09-19T06:09:19;17.10;99.90
13833;DHT22;6987;19.472;-99.276;2023-09-19T06:11:48;17.10;99.90
13833;DHT22;6987;19.472;-99.276;2023-09-19T06:14:18;17.00;99.90
13833;DHT22;6987;19.472;-99.276;2023-09-19T06:16:47;17.00;99.90
13833;DHT22;6987;19.472;-99.276;2023-09-19T06:19:17;17.00;99.90
13833;DHT22;6987;19.472;-99.276;2023-09-19T06:21:52;17.00;99.90
13833;DHT22;6987;19.472;-99.276;2023-09-19T06:24:25;16.90;99.90
13833;DHT22;6987;19.472;-99.276;2023-09-19T06:26:54;16.90;99.90
13833;DHT22;6987;19.472;-99.276;2023-09-19T06:29:24;17.00;99.90
13833;DHT22;6987;19.472;-99.276;2023-09-19T06:31:53;17.10;99.90
13833;DHT22;6987;19.472;-99.276;2023-09-19T06:34:22;17.00;99.90
13833;DHT22;6987;19.472;-99.276;2023-09-19T06:36:54;17.00;99.90
13833;DHT22;6987;19.472;-99.276;2023-09-19T06:39:25;17.00;99.90
13833;DHT22;6987;19.472;-99.276;2023-09-19T06:41:54;17.00;99.90
13833;DHT22;6987;19.472;-99.276;2023-09-19T06:44:23;16.90;99.90
13833;DHT22;6987;19.472;-99.276;2023-09-19T06:46:53;16.90;99.90
13833;DHT22;6987;19.472;-99.276;2023-09-19T06:49:22;16.80;99.90
13833;DHT22;6987;19.472;-99.276;2023-09-19T06:51:56;16.80;99.90
13833;DHT22;6987;19.472;-99.276;2023-09-19T06:54:26;16.90;99.90
13833;DHT22;6987;19.472;-99.276;2023-09-19T06:56:58;16.90;99.90
13833;DHT22;6987;19.472;-99.276;2023-09-19T06:59:27;16.90;99.90
13833;DHT22;6987;19.472;-99.276;2023-09-19T07:01:56;16.90;99.90
13833;DHT22;6987;19.472;-99.276;2023-09-19T07:04:26;16.90;99.90
13833;DHT22;6987;19.472;-99.276;2023-09-19T07:06:57;16.90;99.90
13833;DHT22;6987;19.472;-99.276;2023-09-19T07:09:26;16.80;99.90
13833;DHT22;6987;19.472;-99.276;2023-09-19T07:11:56;16.80;99.90
13833;DHT22;6987;19.472;-99.276;2023-09-19T07:14:25;16.90;99.90
13833;DHT22;6987;19.472;-99.276;2023-09-19T07:16:55;16.90;99.90
13833;DHT22;6987;19.472;-99.276;2023-09-19T07:19:24;16.90;99.90
13833;DHT22;6987;19.472;-99.276;2023-09-19T07:21:57;16.90;99.90
13833;DHT22;6987;19.472;-99.276;2023-09-19T07:24:29;16.90;99.90
13833;DHT22;6987;19.472;-99.276;2023-09-19T07:26:59;16.90;99.90
13833;DHT22;6987;19.472;-99.276;2023-09-19T07:29:28;16.90;99.90
13833;DHT22;6987;19.472;-99.276;2023-09-19T07:31:57;16.90;99.90
13833;DHT22;6987;19.472;-99.276;2023-09-19T07:34:27;16.90;99.90
13833;DHT22;6987;19.472;-99.276;2023-09-19T07:36:58;16.90;99.90
13833;DHT22;6987;19.472;-99.276;2023-09-19T07:39:27;16.90;99.90
13833;DHT22;6987;19.472;-99.276;2023-09-19T07:41:56;17.00;99.90
13833;DHT22;6987;19.472;-99.276;2023-09-19T07:44:25;17.00;99.90
13833;DHT22;6987;19.472;-99.276;2023-09-19T07:46:55;17.00;99.90
13833;DHT22;6987;19.472;-99.276;2023-09-19T07:49:24;16.90;99.90
13833;DHT22;6987;19.472;-99.276;2023-09-19T07:51:53;16.90;99.90
13833;DHT22;6987;19.472;-99.276;2023-09-19T07:54:25;16.90;99.90
13833;DHT22;6987;19.472;-99.276;2023-09-19T07:56:57;16.90;99.90
13833;DHT22;6987;19.472;-99.276;2023-09-19T07:59:26;16.90;99.90
13833;DHT22;6987;19.472;-99.276;2023-09-19T08:01:55;16.90;99.90
13833;DHT22;6987;19.472;-99.276;2023-09-19T08:04:25;17.00;99.90
13833;DHT22;6987;19.472;-99.276;2023-09-19T08:06:55;16.90;99.90
13833;DHT22;6987;19.472;-99.276;2023-09-19T08:09:27;16.90;99.90
13833;DHT22;6987;19.472;-99.276;2023-09-19T08:12:00;16.90;99.90
13833;DHT22;6987;19.472;-99.276;2023-09-19T08:14:32;17.00;99.90
13833;DHT22;6987;19.472;-99.276;2023-09-19T08:17:02;17.00;99.90
13833;DHT22;6987;19.472;-99.276;2023-09-19T08:19:32;17.00;99.90
13833;DHT22;6987;19.472;-99.276;2023-09-19T08:22:01;16.90;99.90
13833;DHT22;6987;19.472;-99.276;2023-09-19T08:24:32;16.90;99.90
13833;DHT22;6987;19.472;-99.276;2023-09-19T08:27:03;16.80;99.90
13833;DHT22;6987;19.472;-99.276;2023-09-19T08:29:36;16.80;99.90
13833;DHT22;6987;19.472;-99.276;2023-09-19T08:32:05;16.70;99.90
13833;DHT22;6987;19.472;-99.276;2023-09-19T08:34:34;16.80;99.90
13833;DHT22;6987;19.472;-99.276;2023-09-19T08:37:05;16.80;99.90
13833;DHT22;6987;19.472;-99.276;2023-09-19T08:39:36;16.80;99.90
13833;DHT22;6987;19.472;-99.276;2023-09-19T08:42:05;16.80;99.90
13833;DHT22;6987;19.472;-99.276;2023-09-19T08:44:37;16.80;99.90
13833;DHT22;6987;19.472;-99.276;2023-09-19T08:47:11;16.90;99.90
13833;DHT22;6987;19.472;-99.276;2023-09-19T08:49:57;16.90;99.90
13833;DHT22;6987;19.472;-99.276;2023-09-19T08:52:36;16.90;99.90
13833;DHT22;6987;19.472;-99.276;2023-09-19T08:55:12;16.90;99.90
13833;DHT22;6987;19.472;-99.276;2023-09-19T08:57:50;16.90;99.90
13833;DHT22;6987;19.472;-99.276;2023-09-19T09:00:20;16.90;99.90
13833;DHT22;6987;19.472;-99.276;2023-09-19T09:02:55;16.80;99.90
13833;DHT22;6987;19.472;-99.276;2023-09-19T09:05:26;16.80;99.90
13833;DHT22;6987;19.472;-99.276;2023-09-19T09:07:57;16.80;99.90
13833;DHT22;6987;19.472;-99.276;2023-09-19T09:10:29;16.70;99.90
13833;DHT22;6987;19.472;-99.276;2023-09-19T09:12:59;16.60;99.90
13833;DHT22;6987;19.472;-99.276;2023-09-19T09:15:30;16.60;99.90
13833;DHT22;6987;19.472;-99.276;2023-09-19T09:18:00;16.50;99.90
13833;DHT22;6987;19.472;-99.276;2023-09-19T09:20:29;16.40;99.90
13833;DHT22;6987;19.472;-99.276;2023-09-19T09:22:58;16.40;99.90
13833;DHT22;6987;19.472;-99.276;2023-09-19T09:25:51;16.50;99.90
13833;DHT22;6987;19.472;-99.276;2023-09-19T09:28:25;16.50;99.90
13833;DHT22;6987;19.472;-99.276;2023-09-19T09:30:55;16.40;99.90
13833;DHT22;6987;19.472;-99.276;2023-09-19T09:33:25;16.30;99.90
13833;DHT22;6987;19.472;-99.276;2023-09-19T09:35:56;16.30;99.90
13833;DHT22;6987;19.472;-99.276;2023-09-19T09:38:28;16.30;99.90
13833;DHT22;6987;19.472;-99.276;2023-09-19T09:41:01;16.30;99.90
13833;DHT22;6987;19.472;-99.276;2023-09-19T09:43:34;16.30;99.90
13833;DHT22;6987;19.472;-99.276;2023-09-19T09:46:12;16.30;99.90
13833;DHT22;6987;19.472;-99.276;2023-09-19T09:49:01;16.30;99.90
13833;DHT22;6987;19.472;-99.276;2023-09-19T09:51:47;16.30;99.90
13833;DHT22;6987;19.472;-99.276;2023-09-19T09:54:24;16.30;99.90
13833;DHT22;6987;19.472;-99.276;2023-09-19T09:57:03;16.40;99.90
13833;DHT22;6987;19.472;-99.276;2023-09-19T09:59:48;16.30;99.90
13833;DHT22;6987;19.472;-99.276;2023-09-19T10:02:25;16.30;99.90
13833;DHT22;6987;19.472;-99.276;2023-09-19T10:04:56;16.30;99.90
13833;DHT22;6987;19.472;-99.276;2023-09-19T10:07:37;16.30;99.90
13833;DHT22;6987;19.472;-99.276;2023-09-19T10:10:09;16.30;99.90
13833;DHT22;6987;19.472;-99.276;2023-09-19T10:12:46;16.30;99.90
13833;DHT22;6987;19.472;-99.276;2023-09-19T10:15:16;16.30;99.90
13833;DHT22;6987;19.472;-99.276;2023-09-19T10:17:47;16.30;99.90
13833;DHT22;6987;19.472;-99.276;2023-09-19T10:20:18;16.20;99.90
13833;DHT22;6987;19.472;-99.276;2023-09-19T10:23:07;16.20;99.90
13833;DHT22;6987;19.472;-99.276;2023-09-19T10:25:40;16.20;99.90
13833;DHT22;6987;19.472;-99.276;2023-09-19T10:28:13;16.20;99.90
13833;DHT22;6987;19.472;-99.276;2023-09-19T10:30:43;16.10;99.90
13833;DHT22;6987;19.472;-99.276;2023-09-19T10:33:14;16.10;99.90
13833;DHT22;6987;19.472;-99.276;2023-09-19T10:35:45;16.00;99.90
13833;DHT22;6987;19.472;-99.276;2023-09-19T10:38:17;16.00;99.90
13833;DHT22;6987;19.472;-99.276;2023-09-19T10:40:50;16.00;99.90
13833;DHT22;6987;19.472;-99.276;2023-09-19T10:43:25;16.00;99.90
13833;DHT22;6987;19.472;-99.276;2023-09-19T10:46:00;16.00;99.90
13833;DHT22;6987;19.472;-99.276;2023-09-19T10:48:30;16.00;99.90
13833;DHT22;6987;19.472;-99.276;2023-09-19T10:51:05;16.00;99.90
13833;DHT22;6987;19.472;-99.276;2023-09-19T10:53:44;16.00;99.90
13833;DHT22;6987;19.472;-99.276;2023-09-19T10:56:21;15.90;99.90
13833;DHT22;6987;19.472;-99.276;2023-09-19T10:58:53;15.90;99.90
13833;DHT22;6987;19.472;-99.276;2023-09-19T11:01:43;15.90;99.90
13833;DHT22;6987;19.472;-99.276;2023-09-19T11:04:25;15.90;99.90
13833;DHT22;6987;19.472;-99.276;2023-09-19T11:07:07;15.90;99.90
13833;DHT22;6987;19.472;-99.276;2023-09-19T11:09:48;15.90;99.90
13833;DHT22;6987;19.472;-99.276;2023-09-19T11:12:50;15.90;99.90
13833;DHT22;6987;19.472;-99.276;2023-09-19T11:18:55;15.80;99.90
13833;DHT22;6987;19.472;-99.276;2023-09-19T11:21:53;15.80;99.90
13833;DHT22;6987;19.472;-99.276;2023-09-19T11:24:31;15.70;99.90
13833;DHT22;6987;19.472;-99.276;2023-09-19T11:27:20;15.60;99.90
13833;DHT22;6987;19.472;-99.276;2023-09-19T11:30:27;15.50;99.90
13833;DHT22;6987;19.472;-99.276;2023-09-19T11:33:16;15.60;99.90
13833;DHT22;6987;19.472;-99.276;2023-09-19T11:36:03;15.50;99.90
13833;DHT22;6987;19.472;-99.276;2023-09-19T11:38:57;15.60;99.90
13833;DHT22;6987;19.472;-99.276;2023-09-19T11:41:41;15.60;99.90
13833;DHT22;6987;19.472;-99.276;2023-09-19T11:44:34;15.60;99.90
13833;DHT22;6987;19.472;-99.276;2023-09-19T11:47:06;15.60;99.90
13833;DHT22;6987;19.472;-99.276;2023-09-19T11:49:41;15.60;99.90
13833;DHT22;6987;19.472;-99.276;2023-09-19T11:52:18;15.60;99.90
13833;DHT22;6987;19.472;-99.276;2023-09-19T11:54:55;15.60;99.90
13833;DHT22;6987;19.472;-99.276;2023-09-19T11:57:26;15.60;99.90
13833;DHT22;6987;19.472;-99.276;2023-09-19T11:59:56;15.50;99.90
13833;DHT22;6987;19.472;-99.276;2023-09-19T12:02:38;15.50;99.90
13833;DHT22;6987;19.472;-99.276;2023-09-19T12:05:08;15.50;99.90
13833;DHT22;6987;19.472;-99.276;2023-09-19T12:07:45;15.50;99.90
13833;DHT22;6987;19.472;-99.276;2023-09-19T12:10:15;15.40;99.90
13833;DHT22;6987;19.472;-99.276;2023-09-19T12:12:48;15.50;99.90
13833;DHT22;6987;19.472;-99.276;2023-09-19T12:15:24;15.40;99.90
13833;DHT22;6987;19.472;-99.276;2023-09-19T12:17:55;15.40;99.90
13833;DHT22;6987;19.472;-99.276;2023-09-19T12:20:24;15.40;99.90
13833;DHT22;6987;19.472;-99.276;2023-09-19T12:22:56;15.40;99.90
13833;DHT22;6987;19.472;-99.276;2023-09-19T12:25:25;15.50;99.90
13833;DHT22;6987;19.472;-99.276;2023-09-19T12:27:54;15.40;99.90
13833;DHT22;6987;19.472;-99.276;2023-09-19T12:30:28;15.40;99.90
13833;DHT22;6987;19.472;-99.276;2023-09-19T12:33:00;15.30;99.90
13833;DHT22;6987;19.472;-99.276;2023-09-19T12:35:30;15.30;99.90
13833;DHT22;6987;19.472;-99.276;2023-09-19T12:38:03;15.40;99.90
13833;DHT22;6987;19.472;-99.276;2023-09-19T12:40:33;15.40;99.90
13833;DHT22;6987;19.472;-99.276;2023-09-19T12:43:05;15.30;99.90
13833;DHT22;6987;19.472;-99.276;2023-09-19T12:45:36;15.30;99.90
13833;DHT22;6987;19.472;-99.276;2023-09-19T12:48:22;15.30;99.90
13833;DHT22;6987;19.472;-99.276;2023-09-19T12:51:06;15.30;99.90
13833;DHT22;6987;19.472;-99.276;2023-09-19T12:53:38;15.30;99.90
13833;DHT22;6987;19.472;-99.276;2023-09-19T12:56:09;15.30;99.90
13833;DHT22;6987;19.472;-99.276;2023-09-19T12:58:51;15.30;99.90
13833;DHT22;6987;19.472;-99.276;2023-09-19T13:01:22;15.30;99.90
13833;DHT22;6987;19.472;-99.276;2023-09-19T13:04:11;15.30;99.90
13833;DHT22;6987;19.472;-99.276;2023-09-19T13:06:45;15.30;99.90
13833;DHT22;6987;19.472;-99.276;2023-09-19T13:09:18;15.30;99.90
13833;DHT22;6987;19.472;-99.276;2023-09-19T13:11:48;15.30;99.90
13833;DHT22;6987;19.472;-99.276;2023-09-19T13:14:21;15.20;99.90
13833;DHT22;6987;19.472;-99.276;2023-09-19T13:17:00;15.30;99.90
13833;DHT22;6987;19.472;-99.276;2023-09-19T13:19:41;15.40;99.90
13833;DHT22;6987;19.472;-99.276;2023-09-19T13:22:36;15.40;99.90
13833;DHT22;6987;19.472;-99.276;2023-09-19T13:25:09;15.50;99.90
13833;DHT22;6987;19.472;-99.276;2023-09-19T13:27:42;15.50;99.90
13833;DHT22;6987;19.472;-99.276;2023-09-19T13:30:12;15.60;99.90
13833;DHT22;6987;19.472;-99.276;2023-09-19T13:32:42;15.70;99.90
13833;DHT22;6987;19.472;-99.276;2023-09-19T13:35:14;15.80;99.90
13833;DHT22;6987;19.472;-99.276;2023-09-19T13:37:44;15.80;99.90
13833;DHT22;6987;19.472;-99.276;2023-09-19T13:40:17;15.90;99.90
13833;DHT22;6987;19.472;-99.276;2023-09-19T13:42:46;16.00;99.90
13833;DHT22;6987;19.472;-99.276;2023-09-19T13:45:15;16.00;99.90
13833;DHT22;6987;19.472;-99.276;2023-09-19T13:47:48;16.10;99.90
13833;DHT22;6987;19.472;-99.276;2023-09-19T13:50:18;16.10;99.90
13833;DHT22;6987;19.472;-99.276;2023-09-19T13:52:50;16.20;99.90
13833;DHT22;6987;19.472;-99.276;2023-09-19T13:55:21;16.30;99.90
13833;DHT22;6987;19.472;-99.276;2023-09-19T13:57:51;16.30;99.90
13833;DHT22;6987;19.472;-99.276;2023-09-19T14:00:23;16.30;99.90
13833;DHT22;6987;19.472;-99.276;2023-09-19T14:02:52;16.40;99.90
13833;DHT22;6987;19.472;-99.276;2023-09-19T14:05:21;16.40;99.90
13833;DHT22;6987;19.472;-99.276;2023-09-19T14:07:50;16.50;99.90
13833;DHT22;6987;19.472;-99.276;2023-09-19T14:10:20;16.50;99.90
13833;DHT22;6987;19.472;-99.276;2023-09-19T14:12:49;16.60;99.90
13833;DHT22;6987;19.472;-99.276;2023-09-19T14:15:19;16.60;99.90
13833;DHT22;6987;19.472;-99.276;2023-09-19T14:17:56;16.70;99.90
13833;DHT22;6987;19.472;-99.276;2023-09-19T14:20:26;16.80;99.90
13833;DHT22;6987;19.472;-99.276;2023-09-19T14:22:56;16.90;99.90
13833;DHT22;6987;19.472;-99.276;2023-09-19T14:25:28;17.00;99.90
13833;DHT22;6987;19.472;-99.276;2023-09-19T14:27:57;17.10;99.90
13833;DHT22;6987;19.472;-99.276;2023-09-19T14:30:27;17.10;99.90
13833;DHT22;6987;19.472;-99.276;2023-09-19T14:32:56;17.20;99.90
13833;DHT22;6987;19.472;-99.276;2023-09-19T14:35:25;17.20;99.90
13833;DHT22;6987;19.472;-99.276;2023-09-19T14:37:54;17.20;99.90
13833;DHT22;6987;19.472;-99.276;2023-09-19T14:40:23;17.30;99.90
13833;DHT22;6987;19.472;-99.276;2023-09-19T14:42:55;17.50;99.90
13833;DHT22;6987;19.472;-99.276;2023-09-19T14:45:24;17.50;99.90
13833;DHT22;6987;19.472;-99.276;2023-09-19T14:47:53;17.50;99.90
13833;DHT22;6987;19.472;-99.276;2023-09-19T14:50:24;17.60;99.90
13833;DHT22;6987;19.472;-99.276;2023-09-19T14:52:53;17.70;99.90
13833;DHT22;6987;19.472;-99.276;2023-09-19T14:55:22;17.80;99.90
13833;DHT22;6987;19.472;-99.276;2023-09-19T14:57:51;17.80;99.90
13833;DHT22;6987;19.472;-99.276;2023-09-19T15:00:24;18.00;99.90
13833;DHT22;6987;19.472;-99.276;2023-09-19T15:02:54;18.10;99.90
13833;DHT22;6987;19.472;-99.276;2023-09-19T15:05:23;18.20;99.90
13833;DHT22;6987;19.472;-99.276;2023-09-19T15:07:52;18.30;99.90
13833;DHT22;6987;19.472;-99.276;2023-09-19T15:10:22;18.40;99.90
13833;DHT22;6987;19.472;-99.276;2023-09-19T15:12:52;18.40;99.90
13833;DHT22;6987;19.472;-99.276;2023-09-19T15:15:21;18.40;99.90
13833;DHT22;6987;19.472;-99.276;2023-09-19T15:17:52;18.40;99.90
13833;DHT22;6987;19.472;-99.276;2023-09-19T15:20:21;18.40;99.90
13833;DHT22;6987;19.472;-99.276;2023-09-19T15:22:51;18.60;99.90
13833;DHT22;6987;19.472;-99.276;2023-09-19T15:25:20;18.80;99.90
13833;DHT22;6987;19.472;-99.276;2023-09-19T15:27:50;18.80;99.90
13833;DHT22;6987;19.472;-99.276;2023-09-19T15:30:19;18.80;99.90
13833;DHT22;6987;19.472;-99.276;2023-09-19T15:32:48;18.90;99.90
13833;DHT22;6987;19.472;-99.276;2023-09-19T15:35:20;19.00;99.90
13833;DHT22;6987;19.472;-99.276;2023-09-19T15:37:49;19.10;99.90
13833;DHT22;6987;19.472;-99.276;2023-09-19T15:40:19;19.10;99.90
13833;DHT22;6987;19.472;-99.276;2023-09-19T15:42:50;19.20;99.90
13833;DHT22;6987;19.472;-99.276;2023-09-19T15:45:19;19.20;99.90
13833;DHT22;6987;19.472;-99.276;2023-09-19T15:47:48;19.30;99.90
13833;DHT22;6987;19.472;-99.276;2023-09-19T15:50:19;19.30;99.90
13833;DHT22;6987;19.472;-99.276;2023-09-19T15:52:53;19.30;99.90